createdAt,value
2022-12-31T00:01:07.187Z,12.40
2022-12-31T00:03:57.206Z,12.47
2022-12-31T00:06:39.421Z,12.42
2022-12-31T00:09:28.141Z,12.34
2022-12-31T00:12:10.284Z,12.42
2022-12-31T00:14:59.265Z,12.44
2022-12-31T00:17:49.465Z,12.53
2022-12-31T00:20:38.255Z,12.41
2022-12-31T00:23:20.400Z,12.41
2022-12-31T00:26:13.206Z,12.46
2022-12-31T00:28:56.470Z,12.36
2022-12-31T00:31:46.184Z,12.44
2022-12-31T00:34:28.475Z,12.40
2022-12-31T00:37:17.102Z,12.49
2022-12-31T00:39:59.468Z,12.52
2022-12-31T00:42:48.190Z,12.56
2022-12-31T00:45:30.512Z,12.48
2022-12-31T00:48:22.467Z,12.45
2022-12-31T00:51:05.460Z,12.56
2022-12-31T00:53:54.193Z,12.48
2022-12-31T00:56:38.453Z,12.38
2022-12-31T00:59:27.204Z,12.31
2022-12-31T01:02:09.583Z,12.34
2022-12-31T01:04:58.157Z,12.34
2022-12-31T01:07:40.414Z,12.30
2022-12-31T01:10:49.182Z,12.29
2022-12-31T01:13:31.507Z,12.25
2022-12-31T01:16:22.218Z,12.22
2022-12-31T01:19:20.995Z,12.31
2022-12-31T01:22:10.179Z,12.22
2022-12-31T01:24:59.196Z,12.23
2022-12-31T01:27:47.394Z,12.27
2022-12-31T01:30:29.111Z,12.16
2022-12-31T01:33:18.104Z,12.20
2022-12-31T01:36:07.235Z,12.09
2022-12-31T01:38:56.404Z,12.09
2022-12-31T01:41:42.028Z,12.01
2022-12-31T01:44:34.171Z,12.08
2022-12-31T01:47:32.437Z,12.17
2022-12-31T01:50:36.413Z,12.05
2022-12-31T01:53:19.029Z,12.17
2022-12-31T01:56:08.448Z,12.07
2022-12-31T01:58:56.092Z,11.82
2022-12-31T02:01:39.737Z,11.92
2022-12-31T02:04:30.175Z,11.94
2022-12-31T02:07:20.445Z,11.88
2022-12-31T02:10:03.186Z,11.91
2022-12-31T02:12:45.412Z,11.76
2022-12-31T02:15:43.145Z,11.86
2022-12-31T02:18:37.115Z,11.85
2022-12-31T02:22:12.041Z,11.91
2022-12-31T02:25:50.151Z,11.89
2022-12-31T02:28:38.375Z,11.91
2022-12-31T02:31:36.132Z,12.14
2022-12-31T02:34:44.001Z,12.08
2022-12-31T02:37:35.211Z,12.09
2022-12-31T02:40:22.433Z,12.09
2022-12-31T02:43:11.180Z,12.08
2022-12-31T02:45:58.437Z,12.21
2022-12-31T02:48:53.167Z,11.92
2022-12-31T02:52:02.441Z,12.21
2022-12-31T02:54:56.993Z,11.90
2022-12-31T02:57:50.442Z,12.00
2022-12-31T03:01:01.151Z,12.05
2022-12-31T03:03:45.487Z,11.83
2022-12-31T03:06:34.050Z,12.08
2022-12-31T03:09:16.452Z,12.29
2022-12-31T03:12:24.185Z,12.46
2022-12-31T03:15:07.731Z,12.43
2022-12-31T03:17:57.122Z,12.62
2022-12-31T03:21:08.783Z,12.71
2022-12-31T03:24:11.078Z,12.94
2022-12-31T03:26:53.264Z,12.92
2022-12-31T03:29:42.013Z,13.28
2022-12-31T03:32:30.431Z,13.39
2022-12-31T03:35:13.161Z,13.76
2022-12-31T03:37:55.811Z,14.12
2022-12-31T03:40:42.053Z,14.79
2022-12-31T03:43:25.396Z,15.42
2022-12-31T03:46:14.542Z,15.97
2022-12-31T03:48:56.480Z,16.34
2022-12-31T03:51:45.064Z,16.74
2022-12-31T03:54:34.111Z,17.07
2022-12-31T03:57:23.473Z,17.35
2022-12-31T04:00:06.209Z,17.73
2022-12-31T04:02:49.909Z,18.12
2022-12-31T04:05:40.200Z,18.13
2022-12-31T04:08:30.466Z,17.96
2022-12-31T04:11:14.756Z,17.87
2022-12-31T04:14:14.162Z,18.96
2022-12-31T04:17:03.448Z,18.86
2022-12-31T04:19:58.163Z,19.35
2022-12-31T04:22:47.040Z,19.21
2022-12-31T04:25:29.528Z,19.48
2022-12-31T04:28:18.201Z,19.13
2022-12-31T04:31:00.358Z,19.81
2022-12-31T04:33:49.497Z,19.83
2022-12-31T04:36:31.399Z,19.87
2022-12-31T04:39:20.164Z,20.08
2022-12-31T04:42:02.400Z,19.73
2022-12-31T04:44:51.054Z,20.50
2022-12-31T04:47:33.504Z,20.27
2022-12-31T04:50:22.070Z,20.09
2022-12-31T04:53:04.444Z,19.77
2022-12-31T04:55:54.105Z,19.78
2022-12-31T04:58:37.167Z,19.50
2022-12-31T05:01:26.182Z,19.16
2022-12-31T05:04:08.644Z,18.80
2022-12-31T05:06:57.049Z,18.88
2022-12-31T05:09:46.041Z,18.83
2022-12-31T05:12:28.450Z,19.07
2022-12-31T05:15:16.995Z,19.20
2022-12-31T05:18:05.517Z,19.26
2022-12-31T05:20:55.194Z,18.90
2022-12-31T05:23:37.504Z,18.72
2022-12-31T05:26:26.228Z,19.12
2022-12-31T05:29:08.401Z,19.44
2022-12-31T05:31:57.042Z,18.75
2022-12-31T05:34:46.043Z,19.25
2022-12-31T05:37:37.366Z,19.18
2022-12-31T05:40:20.111Z,19.30
2022-12-31T05:43:08.460Z,19.11
2022-12-31T05:45:50.213Z,19.59
2022-12-31T05:48:33.144Z,19.80
2022-12-31T05:51:22.144Z,19.54
2022-12-31T05:54:10.422Z,19.94
2022-12-31T05:56:52.496Z,20.28
2022-12-31T05:59:35.034Z,20.90
2022-12-31T06:02:24.024Z,20.96
2022-12-31T06:05:06.682Z,21.01
2022-12-31T06:07:55.177Z,20.20
2022-12-31T06:10:44.476Z,19.99
2022-12-31T06:13:26.065Z,20.61
2022-12-31T06:16:10.073Z,20.23
2022-12-31T06:19:01.164Z,20.69
2022-12-31T06:21:56.063Z,20.83
2022-12-31T06:24:46.081Z,21.33
2022-12-31T06:27:35.068Z,21.31
2022-12-31T06:30:24.456Z,20.98
2022-12-31T06:33:07.037Z,20.64
2022-12-31T06:35:55.460Z,21.07
2022-12-31T06:38:40.184Z,21.33
2022-12-31T06:41:29.417Z,21.04
2022-12-31T06:44:11.198Z,21.06
2022-12-31T06:46:59.513Z,21.09
2022-12-31T06:49:42.020Z,21.30
2022-12-31T06:52:31.543Z,21.02
2022-12-31T06:55:14.061Z,21.18
2022-12-31T06:58:03.371Z,21.11
2022-12-31T07:00:47.103Z,21.35
2022-12-31T07:03:44.237Z,21.44
2022-12-31T07:06:54.010Z,21.07
2022-12-31T07:10:02.193Z,21.31
2022-12-31T07:13:24.049Z,20.85
2022-12-31T07:16:26.176Z,21.30
2022-12-31T07:19:33.158Z,21.48
2022-12-31T07:22:24.453Z,21.03
2022-12-31T07:25:07.250Z,21.30
2022-12-31T07:27:58.355Z,21.35
2022-12-31T07:30:43.148Z,21.47
2022-12-31T07:33:59.166Z,21.39
2022-12-31T07:37:01.581Z,21.50
2022-12-31T07:40:08.141Z,21.26
2022-12-31T07:42:58.500Z,21.63
2022-12-31T07:45:54.146Z,21.59
2022-12-31T07:48:37.405Z,21.28
2022-12-31T07:51:26.210Z,21.54
2022-12-31T07:54:13.682Z,21.47
2022-12-31T07:57:03.036Z,21.29
2022-12-31T07:59:51.559Z,21.76
2022-12-31T08:03:08.071Z,21.73
2022-12-31T08:06:17.562Z,21.36
2022-12-31T08:09:16.080Z,21.48
2022-12-31T08:12:06.052Z,21.04
2022-12-31T08:14:56.113Z,21.50
2022-12-31T08:17:38.384Z,21.69
2022-12-31T08:20:29.046Z,21.92
2022-12-31T08:23:36.425Z,21.87
2022-12-31T08:26:53.219Z,21.69
2022-12-31T08:30:08.391Z,21.94
2022-12-31T08:33:06.016Z,21.62
2022-12-31T08:36:08.388Z,21.37
2022-12-31T08:39:25.118Z,21.34
2022-12-31T08:42:10.459Z,21.08
2022-12-31T08:45:13.966Z,21.38
2022-12-31T08:48:12.403Z,21.45
2022-12-31T08:51:02.041Z,21.68
2022-12-31T08:53:45.385Z,21.45
2022-12-31T08:56:45.971Z,21.42
2022-12-31T09:00:00.151Z,21.55
2022-12-31T09:03:03.441Z,21.55
2022-12-31T09:06:05.130Z,21.19
2022-12-31T09:09:04.129Z,21.24
2022-12-31T09:12:11.113Z,21.12
2022-12-31T09:15:08.570Z,21.12
2022-12-31T09:18:02.083Z,21.21
2022-12-31T09:20:51.432Z,20.91
2022-12-31T09:23:34.145Z,20.89
2022-12-31T09:26:45.689Z,21.62
2022-12-31T09:30:05.243Z,21.74
2022-12-31T09:33:26.516Z,21.14
2022-12-31T09:36:23.093Z,20.66
2022-12-31T09:39:26.340Z,20.96
2022-12-31T09:42:34.154Z,21.27
2022-12-31T09:46:07.438Z,21.20
2022-12-31T09:48:59.095Z,21.35
2022-12-31T09:52:00.169Z,21.25
2022-12-31T09:54:53.523Z,21.66
2022-12-31T09:57:58.127Z,21.58
2022-12-31T10:01:10.506Z,21.28
2022-12-31T10:04:11.993Z,21.18
2022-12-31T10:07:30.124Z,20.98
2022-12-31T10:10:24.983Z,21.18
2022-12-31T10:13:28.478Z,21.34
2022-12-31T10:16:53.215Z,21.13
2022-12-31T10:20:22.079Z,21.18
2022-12-31T10:23:35.027Z,21.33
2022-12-31T10:26:54.601Z,20.93
2022-12-31T10:29:55.120Z,21.23
2022-12-31T10:33:04.427Z,20.91
2022-12-31T10:36:02.025Z,20.90
2022-12-31T10:39:39.028Z,21.08
2022-12-31T10:42:24.594Z,21.11
2022-12-31T10:45:49.113Z,21.28
2022-12-31T10:49:02.484Z,20.89
2022-12-31T10:52:41.530Z,20.80
2022-12-31T10:55:48.047Z,20.89
2022-12-31T10:58:57.463Z,20.96
2022-12-31T11:01:43.316Z,20.88
2022-12-31T11:05:01.467Z,20.68
2022-12-31T11:08:10.046Z,20.60
2022-12-31T11:11:01.484Z,20.44
2022-12-31T11:14:31.176Z,20.64
2022-12-31T11:17:31.460Z,20.50
2022-12-31T11:21:00.041Z,20.61
2022-12-31T11:24:31.095Z,20.49
2022-12-31T11:27:49.539Z,20.38
2022-12-31T11:30:49.031Z,20.12
2022-12-31T11:34:07.026Z,20.20
2022-12-31T11:37:07.316Z,20.16
2022-12-31T11:40:14.260Z,20.05
2022-12-31T11:43:08.459Z,19.96
2022-12-31T11:46:18.163Z,19.85
2022-12-31T11:49:21.685Z,19.66
2022-12-31T11:52:21.368Z,19.46
2022-12-31T11:55:38.405Z,19.27
2022-12-31T11:58:35.991Z,19.06
2022-12-31T12:01:28.338Z,18.91
2022-12-31T12:04:19.171Z,18.82
2022-12-31T12:07:01.484Z,18.66
2022-12-31T12:09:51.992Z,18.59
2022-12-31T12:12:34.456Z,18.34
2022-12-31T12:15:34.211Z,18.37
2022-12-31T12:18:45.329Z,18.34
2022-12-31T12:21:40.999Z,18.23
2022-12-31T12:24:38.036Z,18.16
2022-12-31T12:27:32.331Z,18.19
2022-12-31T12:30:31.084Z,18.19
2022-12-31T12:33:13.314Z,17.93
2022-12-31T12:36:02.149Z,18.03
2022-12-31T12:38:45.427Z,17.94
2022-12-31T12:41:35.124Z,17.74
2022-12-31T12:44:23.357Z,17.73
2022-12-31T12:47:16.189Z,17.67
2022-12-31T12:50:02.401Z,17.53
2022-12-31T12:53:12.037Z,17.52
2022-12-31T12:56:18.419Z,17.46
2022-12-31T12:59:43.971Z,17.40
2022-12-31T13:02:32.499Z,17.30
2022-12-31T13:05:38.065Z,17.27
2022-12-31T13:08:34.507Z,17.18
2022-12-31T13:11:38.074Z,17.16
2022-12-31T13:14:37.525Z,17.09
2022-12-31T13:17:41.056Z,16.94
2022-12-31T13:20:46.407Z,17.04
2022-12-31T13:23:55.034Z,17.01
2022-12-31T13:27:03.600Z,17.10
2022-12-31T13:29:56.110Z,17.09
2022-12-31T13:32:51.518Z,17.08
2022-12-31T13:36:11.034Z,17.18
2022-12-31T13:39:02.059Z,17.05
2022-12-31T13:42:11.327Z,17.03
2022-12-31T13:45:07.061Z,16.87
2022-12-31T13:48:06.581Z,16.94
2022-12-31T13:51:02.045Z,16.89
2022-12-31T13:54:15.091Z,16.81
2022-12-31T13:57:07.138Z,16.76
2022-12-31T13:59:56.144Z,16.69
2022-12-31T14:03:07.127Z,16.64
2022-12-31T14:06:07.419Z,16.58
2022-12-31T14:08:49.124Z,16.48
2022-12-31T14:11:57.389Z,16.42
2022-12-31T14:15:05.993Z,16.38
2022-12-31T14:17:57.337Z,16.37
2022-12-31T14:21:00.975Z,16.23
2022-12-31T14:24:25.297Z,16.24
2022-12-31T14:27:12.005Z,16.12
2022-12-31T14:30:08.388Z,16.09
2022-12-31T14:32:53.054Z,16.01
2022-12-31T14:36:02.826Z,15.89
2022-12-31T14:39:03.449Z,15.74
2022-12-31T14:42:10.057Z,15.76
2022-12-31T14:45:08.999Z,15.69
2022-12-31T14:48:31.985Z,15.72
2022-12-31T14:51:15.312Z,15.57
2022-12-31T14:54:05.985Z,15.58
2022-12-31T14:56:49.376Z,15.70
2022-12-31T14:59:40.853Z,15.71
2022-12-31T15:02:42.507Z,15.56
2022-12-31T15:05:40.175Z,15.43
2022-12-31T15:08:51.407Z,15.42
2022-12-31T15:11:46.140Z,15.40
2022-12-31T15:14:46.423Z,15.49
2022-12-31T15:17:56.025Z,15.64
2022-12-31T15:21:26.906Z,15.40
2022-12-31T15:24:28.004Z,15.36
2022-12-31T15:27:14.287Z,15.31
2022-12-31T15:30:03.042Z,15.27
2022-12-31T15:32:51.284Z,15.24
2022-12-31T15:35:51.960Z,15.30
2022-12-31T15:38:45.409Z,15.22
2022-12-31T15:42:10.285Z,15.17
2022-12-31T15:45:14.830Z,15.21
2022-12-31T15:48:08.038Z,15.17
2022-12-31T15:50:52.323Z,15.08
2022-12-31T15:54:00.145Z,15.03
2022-12-31T15:56:53.524Z,14.96
2022-12-31T15:59:41.993Z,15.01
2022-12-31T16:02:39.052Z,14.98
2022-12-31T16:05:35.068Z,14.99
2022-12-31T16:08:28.388Z,14.87
2022-12-31T16:11:18.129Z,14.94
2022-12-31T16:14:03.317Z,14.93
2022-12-31T16:17:01.043Z,14.91
2022-12-31T16:19:50.396Z,14.93
2022-12-31T16:22:46.055Z,15.06
2022-12-31T16:25:31.077Z,14.94
2022-12-31T16:28:33.986Z,14.97
2022-12-31T16:31:24.402Z,14.86
2022-12-31T16:34:14.944Z,14.86
2022-12-31T16:37:06.670Z,14.77
2022-12-31T16:40:05.113Z,14.83
2022-12-31T16:42:47.611Z,14.84
2022-12-31T16:45:44.055Z,14.88
2022-12-31T16:48:28.413Z,14.91
2022-12-31T16:51:26.026Z,14.92
2022-12-31T16:54:13.969Z,14.98
2022-12-31T16:57:00.955Z,15.03
2022-12-31T16:59:47.821Z,15.03
2022-12-31T17:02:53.042Z,15.11
2022-12-31T17:05:37.619Z,15.45
2022-12-31T17:08:54.085Z,15.49
2022-12-31T17:11:47.095Z,15.64
2022-12-31T17:14:39.484Z,15.64
2022-12-31T17:17:38.056Z,15.75
2022-12-31T17:20:33.888Z,15.64
2022-12-31T17:23:37.098Z,15.60
2022-12-31T17:26:21.319Z,15.58
2022-12-31T17:29:12.179Z,15.59
2022-12-31T17:32:14.475Z,15.54
2022-12-31T17:35:03.335Z,15.54
2022-12-31T17:37:45.384Z,15.52
2022-12-31T17:40:51.675Z,15.39
2022-12-31T17:43:35.642Z,15.46
2022-12-31T17:46:25.025Z,15.48
2022-12-31T17:52:16.936Z,15.32
2022-12-31T17:55:06.075Z,15.38
2022-12-31T17:57:59.431Z,15.39
2022-12-31T18:00:47.929Z,15.38
2022-12-31T18:03:30.364Z,15.41
2022-12-31T18:06:19.989Z,15.50
2022-12-31T18:09:09.088Z,15.37
2022-12-31T18:12:01.476Z,15.26
2022-12-31T18:14:51.015Z,15.17
2022-12-31T18:17:34.359Z,15.20
2022-12-31T18:20:24.188Z,15.15
2022-12-31T18:23:12.252Z,15.24
2022-12-31T18:25:54.973Z,15.25
2022-12-31T18:28:43.405Z,15.25
2022-12-31T18:31:32.134Z,15.28
2022-12-31T18:34:16.552Z,15.26
2022-12-31T18:37:04.876Z,15.31
2022-12-31T18:39:53.279Z,15.27
2022-12-31T18:42:35.986Z,15.23
2022-12-31T18:45:27.297Z,15.29
2022-12-31T18:48:09.028Z,15.11
2022-12-31T18:51:04.871Z,15.04
2022-12-31T18:53:53.974Z,14.98
2022-12-31T18:56:47.608Z,14.88
2022-12-31T18:59:42.969Z,14.90
2022-12-31T19:02:31.307Z,14.80
2022-12-31T19:05:29.035Z,14.78
2022-12-31T19:08:11.195Z,14.78
2022-12-31T19:11:00.959Z,14.66
2022-12-31T19:13:49.972Z,14.70
2022-12-31T19:16:32.277Z,14.68
2022-12-31T19:19:20.974Z,14.63
2022-12-31T19:22:03.879Z,14.59
2022-12-31T19:24:53.055Z,14.62
2022-12-31T19:27:35.299Z,14.57
2022-12-31T19:30:34.042Z,14.66
2022-12-31T19:33:16.283Z,14.63
2022-12-31T19:36:05.104Z,14.54
2022-12-31T19:38:47.272Z,14.53
2022-12-31T19:41:35.992Z,14.45
2022-12-31T19:44:26.331Z,14.35
2022-12-31T19:47:15.973Z,14.21
2022-12-31T19:49:58.530Z,14.13
2022-12-31T19:52:46.918Z,14.02
2022-12-31T19:55:36.939Z,14.13
2022-12-31T19:58:31.342Z,14.08
2022-12-31T20:01:14.106Z,14.09
2022-12-31T20:04:02.410Z,14.09
2022-12-31T20:06:44.962Z,13.92
2022-12-31T20:09:33.284Z,14.01
2022-12-31T20:12:15.075Z,13.95
2022-12-31T20:14:57.521Z,14.00
2022-12-31T20:17:46.051Z,13.92
2022-12-31T20:20:35.384Z,13.84
2022-12-31T20:23:17.936Z,13.90
2022-12-31T20:26:01.585Z,13.85
2022-12-31T20:28:50.956Z,13.76
2022-12-31T20:31:39.949Z,13.82
2022-12-31T20:34:22.302Z,13.78
2022-12-31T20:37:11.011Z,13.67
2022-12-31T20:39:59.860Z,13.61
2022-12-31T20:42:49.275Z,13.66
2022-12-31T20:45:33.024Z,13.66
2022-12-31T20:48:15.332Z,13.78
2022-12-31T20:51:12.938Z,13.62
2022-12-31T20:53:58.593Z,13.69
2022-12-31T20:56:50.030Z,13.68
2022-12-31T20:59:38.316Z,13.73
2022-12-31T21:02:34.470Z,13.79
2022-12-31T21:05:30.127Z,13.78
2022-12-31T21:08:12.342Z,13.75
2022-12-31T21:11:00.993Z,13.79
2022-12-31T21:13:49.939Z,13.77
2022-12-31T21:16:39.903Z,13.78
2022-12-31T21:19:28.997Z,13.86
2022-12-31T21:22:18.044Z,13.85
2022-12-31T21:25:02.072Z,13.88
2022-12-31T21:27:50.920Z,14.01
2022-12-31T21:30:33.291Z,14.10
2022-12-31T21:33:21.901Z,14.04
2022-12-31T21:36:05.019Z,14.01
2022-12-31T21:38:53.968Z,13.89
2022-12-31T21:41:54.437Z,13.79
2022-12-31T21:44:42.990Z,13.77
2022-12-31T21:47:47.706Z,13.78
2022-12-31T21:50:43.032Z,13.68
2022-12-31T21:53:39.982Z,13.77
2022-12-31T21:56:29.320Z,13.62
2022-12-31T21:59:29.980Z,13.60
2022-12-31T22:02:37.673Z,13.61
2022-12-31T22:05:24.965Z,13.52
2022-12-31T22:08:13.939Z,13.47
2022-12-31T22:10:56.318Z,13.41
2022-12-31T22:13:45.086Z,13.43
2022-12-31T22:16:28.418Z,13.44
2022-12-31T22:19:16.989Z,13.47
2022-12-31T22:21:59.260Z,13.52
2022-12-31T22:24:47.928Z,13.43
2022-12-31T22:27:36.864Z,13.32
2022-12-31T22:30:26.233Z,13.26
2022-12-31T22:33:08.906Z,13.28
2022-12-31T22:36:09.359Z,13.37
2022-12-31T22:38:51.926Z,13.40
2022-12-31T22:41:42.602Z,13.38
2022-12-31T22:44:25.897Z,13.41
2022-12-31T22:47:15.263Z,13.45
2022-12-31T22:49:56.998Z,13.36
2022-12-31T22:52:45.243Z,13.32
2022-12-31T22:55:26.964Z,13.21
2022-12-31T22:58:15.303Z,13.21
2022-12-31T23:00:57.868Z,13.21
2022-12-31T23:03:46.934Z,13.05
2022-12-31T23:06:31.989Z,12.91
2022-12-31T23:09:32.576Z,12.97
2022-12-31T23:12:21.935Z,13.00
2022-12-31T23:15:22.819Z,12.96
2022-12-31T23:18:29.996Z,12.87
2022-12-31T23:21:36.441Z,12.85
2022-12-31T23:24:26.693Z,12.83
2022-12-31T23:27:09.288Z,12.89
2022-12-31T23:29:57.967Z,12.89
2022-12-31T23:32:40.208Z,12.90
2022-12-31T23:35:28.863Z,12.85
2022-12-31T23:38:17.924Z,12.81
2022-12-31T23:41:06.295Z,12.78
2022-12-31T23:43:48.944Z,12.76
2022-12-31T23:46:31.178Z,12.75
2022-12-31T23:49:19.957Z,12.71
2022-12-31T23:52:08.333Z,12.68
2022-12-31T23:54:49.982Z,12.71
2022-12-31T23:57:32.162Z,12.70
